createdAt,value
2023-04-10T00:01:49.632Z,99528.69
2023-04-10T00:04:17.751Z,99546.69
2023-04-10T00:06:45.873Z,99537.66
2023-04-10T00:09:13.756Z,99537.97
2023-04-10T00:11:41.688Z,99533.84
2023-04-10T00:14:09.513Z,99540.91
2023-04-10T00:16:37.481Z,99536.50
2023-04-10T00:19:05.396Z,99535.16
2023-04-10T00:21:33.268Z,99533.28
2023-04-10T00:24:01.112Z,99539.41
2023-04-10T00:26:28.995Z,99532.06
2023-04-10T00:28:56.951Z,99534.81
2023-04-10T00:31:24.864Z,99530.69
2023-04-10T00:33:53.172Z,99522.88
2023-04-10T00:36:21.548Z,99523.06
2023-04-10T00:38:52.671Z,99532.06
2023-04-10T00:41:20.538Z,99518.47
2023-04-10T00:43:48.604Z,99524.31
2023-04-10T00:46:16.528Z,99516.75
2023-04-10T00:48:44.840Z,99516.19
2023-04-10T00:51:12.874Z,99509.63
2023-04-10T00:53:40.905Z,99515.00
2023-04-10T00:56:09.157Z,99507.66
2023-04-10T00:58:36.986Z,99513.69
2023-04-10T01:01:06.291Z,99519.25
2023-04-10T01:03:34.982Z,99510.06
2023-04-10T01:06:08.708Z,99513.56
2023-04-10T01:08:48.990Z,99516.78
2023-04-10T01:11:40.130Z,99512.69
2023-04-10T01:14:31.966Z,99517.97
2023-04-10T01:17:13.625Z,99515.50
2023-04-10T01:19:47.536Z,99516.59
2023-04-10T01:22:17.738Z,99520.44
2023-04-10T01:25:15.642Z,99508.69
2023-04-10T01:27:54.188Z,99513.56
2023-04-10T01:30:23.440Z,99513.53
2023-04-10T01:32:56.089Z,99512.72
2023-04-10T01:35:26.109Z,99507.84
2023-04-10T01:37:56.578Z,99511.97
2023-04-10T01:40:26.652Z,99516.06
2023-04-10T01:42:56.972Z,99514.16
2023-04-10T01:45:33.679Z,99514.72
2023-04-10T01:48:02.230Z,99508.72
2023-04-10T01:50:31.975Z,99486.91
2023-04-10T01:53:02.372Z,99503.53
2023-04-10T01:55:32.437Z,99504.13
2023-04-10T01:58:06.433Z,99509.09
2023-04-10T02:00:42.930Z,99506.53
2023-04-10T02:03:12.307Z,99512.34
2023-04-10T02:06:09.409Z,99506.88
2023-04-10T02:08:41.408Z,99508.00
2023-04-10T02:11:34.473Z,99512.34
2023-04-10T02:14:08.165Z,99509.09
2023-04-10T02:16:38.689Z,99501.94
2023-04-10T02:19:07.049Z,99511.56
2023-04-10T02:21:36.224Z,99500.91
2023-04-10T02:24:04.479Z,99504.78
2023-04-10T02:26:45.114Z,99504.06
2023-04-10T02:29:13.179Z,99513.53
2023-04-10T02:31:41.965Z,99501.03
2023-04-10T02:34:10.664Z,99499.13
2023-04-10T02:36:40.026Z,99498.84
2023-04-10T02:39:09.219Z,99506.50
2023-04-10T02:41:46.605Z,99508.16
2023-04-10T02:44:15.889Z,99504.31
2023-04-10T02:46:44.600Z,99514.13
2023-04-10T02:49:13.747Z,99498.91
2023-04-10T02:51:41.610Z,99503.88
2023-04-10T02:54:09.494Z,99512.84
2023-04-10T02:56:38.685Z,99514.47
2023-04-10T02:59:07.026Z,99506.78
2023-04-10T03:01:35.920Z,99508.72
2023-04-10T03:04:04.420Z,99505.97
2023-04-10T03:06:37.912Z,99498.34
2023-04-10T03:09:06.045Z,99494.31
2023-04-10T03:11:35.752Z,99499.44
2023-04-10T03:14:04.741Z,99499.72
2023-04-10T03:16:33.104Z,99502.19
2023-04-10T03:19:04.685Z,99496.19
2023-04-10T03:21:32.962Z,99490.78
2023-04-10T03:24:01.103Z,99496.47
2023-04-10T03:26:28.999Z,99498.13
2023-04-10T03:28:57.307Z,99498.00
2023-04-10T03:31:25.453Z,99501.84
2023-04-10T03:33:57.000Z,99505.66
2023-04-10T03:36:25.167Z,99504.84
2023-04-10T03:38:53.072Z,99499.63
2023-04-10T03:41:23.160Z,99502.38
2023-04-10T03:43:53.200Z,99496.66
2023-04-10T03:46:22.731Z,99506.19
2023-04-10T03:48:54.058Z,99501.03
2023-04-10T03:51:24.717Z,99500.19
2023-04-10T03:53:53.095Z,99509.19
2023-04-10T03:56:21.477Z,99533.78
2023-04-10T03:58:49.724Z,99505.09
2023-04-10T04:01:17.954Z,99504.25
2023-04-10T04:03:59.301Z,99508.59
2023-04-10T04:06:47.051Z,99510.78
2023-04-10T04:09:43.763Z,99510.25
2023-04-10T04:12:27.780Z,99515.72
2023-04-10T04:15:23.844Z,99514.56
2023-04-10T04:18:16.752Z,99516.50
2023-04-10T04:20:49.388Z,99519.59
2023-04-10T04:23:37.358Z,99519.28
2023-04-10T04:26:09.407Z,99519.28
2023-04-10T04:28:54.037Z,99525.25
2023-04-10T04:31:37.187Z,99519.78
2023-04-10T04:34:16.479Z,99528.50
2023-04-10T04:36:44.331Z,99529.53
2023-04-10T04:39:25.971Z,99533.72
2023-04-10T04:42:16.716Z,99538.34
2023-04-10T04:45:12.954Z,99530.13
2023-04-10T04:47:59.878Z,99539.66
2023-04-10T04:50:35.300Z,99538.03
2023-04-10T04:53:15.858Z,99537.53
2023-04-10T04:55:59.932Z,99542.66
2023-04-10T04:58:46.365Z,99539.66
2023-04-10T05:01:32.660Z,99543.72
2023-04-10T05:04:26.310Z,99532.03
2023-04-10T05:07:20.405Z,99546.75
2023-04-10T05:09:48.332Z,99537.72
2023-04-10T05:12:38.647Z,99550.25
2023-04-10T05:15:45.442Z,99548.59
2023-04-10T05:18:31.787Z,99553.75
2023-04-10T05:21:07.642Z,99550.50
2023-04-10T05:23:54.218Z,99548.06
2023-04-10T05:26:44.974Z,99547.84
2023-04-10T05:29:25.746Z,99554.38
2023-04-10T05:32:06.381Z,99552.78
2023-04-10T05:34:51.925Z,99560.66
2023-04-10T05:37:33.572Z,99551.13
2023-04-10T05:40:36.823Z,99551.88
2023-04-10T05:43:23.490Z,99554.91
2023-04-10T05:46:13.765Z,99569.66
2023-04-10T05:49:01.921Z,99565.78
2023-04-10T05:51:35.521Z,99565.28
2023-04-10T05:54:17.625Z,99558.47
2023-04-10T05:57:05.690Z,99567.47
2023-04-10T05:59:36.195Z,99583.84
2023-04-10T06:02:24.909Z,99578.63
2023-04-10T06:04:53.217Z,99576.16
2023-04-10T06:07:21.607Z,99577.03
2023-04-10T06:09:49.448Z,99579.72
2023-04-10T06:12:17.459Z,99582.97
2023-04-10T06:14:45.441Z,99579.97
2023-04-10T06:17:13.419Z,99581.34
2023-04-10T06:19:41.435Z,99579.13
2023-04-10T06:22:09.397Z,99581.88
2023-04-10T06:24:37.213Z,99579.78
2023-04-10T06:27:05.294Z,99580.59
2023-04-10T06:29:33.155Z,99590.69
2023-04-10T06:32:01.443Z,99582.72
2023-04-10T06:34:32.313Z,99585.47
2023-04-10T06:37:04.374Z,99604.53
2023-04-10T06:39:32.941Z,99596.44
2023-04-10T06:42:01.317Z,99606.44
2023-04-10T06:44:49.681Z,99595.25
2023-04-10T06:47:18.307Z,99602.94
2023-04-10T06:49:46.167Z,99601.59
2023-04-10T06:52:14.133Z,99597.47
2023-04-10T06:54:42.218Z,99593.06
2023-04-10T06:57:10.316Z,99605.66
2023-04-10T06:59:38.573Z,99605.06
2023-04-10T07:02:06.908Z,99605.66
2023-04-10T07:04:34.907Z,99604.75
2023-04-10T07:07:02.994Z,99611.03
2023-04-10T07:09:31.117Z,99608.84
2023-04-10T07:11:59.000Z,99609.97
2023-04-10T07:14:26.879Z,99617.91
2023-04-10T07:16:54.767Z,99611.44
2023-04-10T07:19:22.658Z,99619.28
2023-04-10T07:21:50.618Z,99623.53
2023-04-10T07:24:18.758Z,99624.38
2023-04-10T07:26:46.641Z,99619.75
2023-04-10T07:29:14.515Z,99619.81
2023-04-10T07:31:42.706Z,99620.53
2023-04-10T07:34:11.719Z,99619.50
2023-04-10T07:36:39.758Z,99603.13
2023-04-10T07:39:07.683Z,99612.06
2023-04-10T07:41:35.929Z,99598.41
2023-04-10T07:44:03.847Z,99613.28
2023-04-10T07:46:31.799Z,99613.03
2023-04-10T07:48:59.646Z,99613.50
2023-04-10T07:51:27.752Z,99605.97
2023-04-10T07:53:56.322Z,99613.59
2023-04-10T07:56:24.228Z,99604.06
2023-04-10T07:58:52.427Z,99615.16
2023-04-10T08:01:20.955Z,99609.72
2023-04-10T08:03:49.014Z,99614.31
2023-04-10T08:06:17.014Z,99609.38
2023-04-10T08:08:44.932Z,99615.75
2023-04-10T08:11:24.955Z,99606.41
2023-04-10T08:13:58.090Z,99609.84
2023-04-10T08:16:27.681Z,99604.34
2023-04-10T08:18:57.450Z,99607.50
2023-04-10T08:21:27.347Z,99611.22
2023-04-10T08:23:57.205Z,99611.06
2023-04-10T08:26:26.466Z,99611.38
2023-04-10T08:28:56.588Z,99607.63
2023-04-10T08:31:26.061Z,99605.53
2023-04-10T08:33:54.456Z,99601.59
2023-04-10T08:36:22.586Z,99594.97
2023-04-10T08:38:50.472Z,99596.84
2023-04-10T08:41:19.833Z,99605.69
2023-04-10T08:43:49.699Z,99601.84
2023-04-10T08:46:17.835Z,99604.41
2023-04-10T08:48:55.715Z,99598.94
2023-04-10T08:51:37.080Z,99600.63
2023-04-10T08:54:19.398Z,99596.56
2023-04-10T08:56:51.406Z,99593.59
2023-04-10T08:59:19.474Z,99598.22
2023-04-10T09:01:48.951Z,99597.66
2023-04-10T09:04:18.000Z,99601.72
2023-04-10T09:06:47.319Z,99581.63
2023-04-10T09:09:15.394Z,99583.88
2023-04-10T09:11:56.553Z,99600.72
2023-04-10T09:14:29.349Z,99591.63
2023-04-10T09:17:23.064Z,99609.66
2023-04-10T09:19:53.610Z,99587.41
2023-04-10T09:22:32.931Z,99585.72
2023-04-10T09:25:01.943Z,99582.78
2023-04-10T09:27:33.026Z,99583.28
2023-04-10T09:30:01.895Z,99581.00
2023-04-10T09:32:45.147Z,99594.44
2023-04-10T09:35:15.113Z,99590.44
2023-04-10T09:37:45.716Z,99581.06
2023-04-10T09:40:25.112Z,99569.44
2023-04-10T09:42:56.126Z,99571.59
2023-04-10T09:45:24.141Z,99561.91
2023-04-10T09:48:03.364Z,99558.63
2023-04-10T09:50:39.291Z,99545.28
2023-04-10T09:53:20.483Z,99544.69
2023-04-10T09:55:49.930Z,99538.66
2023-04-10T09:58:18.962Z,99533.97
2023-04-10T10:00:48.564Z,99527.59
2023-04-10T10:03:18.396Z,99523.84
2023-04-10T10:05:49.132Z,99521.94
2023-04-10T10:08:17.686Z,99516.94
2023-04-10T10:10:52.000Z,99513.38
2023-04-10T10:13:34.102Z,99512.47
2023-04-10T10:16:08.565Z,99508.13
2023-04-10T10:18:51.659Z,99495.41
2023-04-10T10:21:21.046Z,99492.53
2023-04-10T10:23:54.997Z,99487.78
2023-04-10T10:26:23.729Z,99487.31
2023-04-10T10:28:55.211Z,99487.50
2023-04-10T10:31:25.879Z,99481.91
2023-04-10T10:33:54.290Z,99481.50
2023-04-10T10:36:22.571Z,99490.63
2023-04-10T10:39:14.685Z,99472.09
2023-04-10T10:42:01.698Z,99465.47
2023-04-10T10:44:38.259Z,99465.88
2023-04-10T10:47:24.895Z,99473.50
2023-04-10T10:50:03.772Z,99460.09
2023-04-10T10:52:43.205Z,99458.91
2023-04-10T10:55:23.931Z,99455.13
2023-04-10T10:57:55.299Z,99448.72
2023-04-10T11:00:25.251Z,99443.19
2023-04-10T11:03:08.506Z,99441.53
2023-04-10T11:05:56.456Z,99442.19
2023-04-10T11:08:33.844Z,99441.63
2023-04-10T11:11:08.116Z,99443.00
2023-04-10T11:13:38.997Z,99430.19
2023-04-10T11:16:12.449Z,99428.94
2023-04-10T11:18:47.302Z,99426.50
2023-04-10T11:21:18.159Z,99423.44
2023-04-10T11:24:02.258Z,99418.88
2023-04-10T11:26:36.138Z,99409.19
2023-04-10T11:29:06.258Z,99407.22
2023-04-10T11:31:34.464Z,99408.19
2023-04-10T11:34:04.614Z,99402.53
2023-04-10T11:36:39.541Z,99385.81
2023-04-10T11:39:17.920Z,99386.13
2023-04-10T11:41:50.945Z,99389.97
2023-04-10T11:44:28.167Z,99380.59
2023-04-10T11:46:57.978Z,99365.28
2023-04-10T11:49:30.064Z,99369.38
2023-04-10T11:51:57.896Z,99370.84
2023-04-10T11:54:27.759Z,99356.00
2023-04-10T11:57:09.582Z,99350.25
2023-04-10T11:59:37.474Z,99358.19
2023-04-10T12:02:16.637Z,99349.94
2023-04-10T12:04:44.960Z,99345.81
2023-04-10T12:07:13.171Z,99346.00
2023-04-10T12:09:41.044Z,99338.25
2023-04-10T12:12:08.995Z,99332.59
2023-04-10T12:14:39.706Z,99328.84
2023-04-10T12:17:09.566Z,99329.19
2023-04-10T12:19:39.262Z,99322.91
2023-04-10T12:22:07.736Z,99321.88
2023-04-10T12:24:53.292Z,99320.19
2023-04-10T12:27:29.245Z,99320.84
2023-04-10T12:29:58.682Z,99312.97
2023-04-10T12:32:29.593Z,99320.53
2023-04-10T12:34:58.745Z,99320.06
2023-04-10T12:37:50.682Z,99310.97
2023-04-10T12:40:20.704Z,99300.38
2023-04-10T12:42:48.634Z,99299.28
2023-04-10T12:45:16.512Z,99301.38
2023-04-10T12:47:47.178Z,99288.63
2023-04-10T12:50:17.483Z,99293.88
2023-04-10T12:53:00.931Z,99283.66
2023-04-10T12:55:31.659Z,99281.47
2023-04-10T12:58:18.070Z,99267.34
2023-04-10T13:00:46.975Z,99270.25
2023-04-10T13:03:14.976Z,99265.88
2023-04-10T13:05:42.945Z,99264.75
2023-04-10T13:08:10.790Z,99262.06
2023-04-10T13:10:38.749Z,99252.94
2023-04-10T13:13:07.281Z,99247.47
2023-04-10T13:15:35.229Z,99251.25
2023-04-10T13:18:05.297Z,99251.59
2023-04-10T13:20:35.943Z,99242.41
2023-04-10T13:23:04.382Z,99238.75
2023-04-10T13:25:33.880Z,99235.50
2023-04-10T13:28:02.184Z,99226.84
2023-04-10T13:30:30.052Z,99227.16
2023-04-10T13:32:57.941Z,99218.41
2023-04-10T13:35:25.881Z,99210.91
2023-04-10T13:37:54.298Z,99203.13
2023-04-10T13:40:22.251Z,99194.06
2023-04-10T13:42:50.232Z,99195.25
2023-04-10T13:45:18.172Z,99199.50
2023-04-10T13:47:46.178Z,99187.72
2023-04-10T13:50:14.018Z,99189.28
2023-04-10T13:52:41.891Z,99194.75
2023-04-10T13:55:10.052Z,99174.28
2023-04-10T13:57:38.622Z,99164.50
2023-04-10T14:00:08.896Z,99158.78
2023-04-10T14:02:42.573Z,99153.53
2023-04-10T14:05:10.869Z,99151.56
2023-04-10T14:07:38.751Z,99157.31
2023-04-10T14:10:07.524Z,99147.06
2023-04-10T14:12:37.057Z,99144.00
2023-04-10T14:15:06.315Z,99138.47
2023-04-10T14:17:34.789Z,99129.84
2023-04-10T14:20:02.698Z,99129.81
2023-04-10T14:22:31.709Z,99129.25
2023-04-10T14:25:11.698Z,99129.25
2023-04-10T14:27:40.702Z,99120.88
2023-04-10T14:30:09.911Z,99116.06
2023-04-10T14:32:41.209Z,99113.34
2023-04-10T14:35:09.558Z,99114.25
2023-04-10T14:37:37.683Z,99108.28
2023-04-10T14:40:06.492Z,99109.16
2023-04-10T14:42:34.600Z,99105.94
2023-04-10T14:45:02.416Z,99108.53
2023-04-10T14:47:30.313Z,99099.84
2023-04-10T14:49:58.257Z,99099.00
2023-04-10T14:52:26.153Z,99104.06
2023-04-10T14:54:54.074Z,99101.81
2023-04-10T14:57:21.973Z,99093.75
2023-04-10T14:59:49.884Z,99092.22
2023-04-10T15:02:17.739Z,99092.13
2023-04-10T15:04:45.610Z,99088.69
2023-04-10T15:07:14.275Z,99076.66
2023-04-10T15:09:43.164Z,99082.94
2023-04-10T15:12:11.066Z,99087.13
2023-04-10T15:14:38.937Z,99074.81
2023-04-10T15:17:07.028Z,99075.34
2023-04-10T15:19:34.982Z,99079.53
2023-04-10T15:22:02.849Z,99084.03
2023-04-10T15:24:32.533Z,99075.06
2023-04-10T15:27:06.849Z,99069.31
2023-04-10T15:29:39.029Z,99063.75
2023-04-10T15:32:07.031Z,99076.56
2023-04-10T15:34:34.976Z,99078.66
2023-04-10T15:37:02.794Z,99059.84
2023-04-10T15:39:33.551Z,99061.38
2023-04-10T15:42:01.832Z,99049.75
2023-04-10T15:44:30.226Z,99048.63
2023-04-10T15:46:58.204Z,99039.97
2023-04-10T15:49:37.068Z,99037.91
2023-04-10T15:52:06.985Z,99038.59
2023-04-10T15:54:35.060Z,99039.84
2023-04-10T15:57:04.159Z,99039.59
2023-04-10T15:59:33.486Z,99027.28
2023-04-10T16:02:01.872Z,99030.91
2023-04-10T16:04:30.757Z,99031.97
2023-04-10T16:06:58.984Z,99035.38
2023-04-10T16:09:27.417Z,99025.50
2023-04-10T16:11:56.310Z,99017.91
2023-04-10T16:14:24.273Z,99005.03
2023-04-10T16:16:52.267Z,99011.19
2023-04-10T16:19:20.286Z,99018.09
2023-04-10T16:21:48.143Z,99004.38
2023-04-10T16:24:16.434Z,98998.31
2023-04-10T16:26:44.244Z,98992.38
2023-04-10T16:29:12.222Z,98991.06
2023-04-10T16:31:40.091Z,98994.31
2023-04-10T16:34:08.011Z,98985.44
2023-04-10T16:36:36.022Z,98989.81
2023-04-10T16:39:03.936Z,98988.00
2023-04-10T16:41:31.792Z,98979.03
2023-04-10T16:43:59.784Z,98968.22
2023-04-10T16:46:27.663Z,98965.47
2023-04-10T16:48:55.734Z,98960.91
2023-04-10T16:51:24.652Z,98959.28
2023-04-10T16:53:53.335Z,98953.59
2023-04-10T16:56:21.542Z,98951.28
2023-04-10T16:58:49.514Z,98953.13
2023-04-10T17:01:19.769Z,98946.94
2023-04-10T17:03:48.723Z,98946.00
2023-04-10T17:06:17.219Z,98943.56
2023-04-10T17:08:45.599Z,98944.41
2023-04-10T17:11:13.736Z,98934.59
2023-04-10T17:13:42.005Z,98938.28
2023-04-10T17:16:09.977Z,98934.25
2023-04-10T17:18:37.885Z,98928.88
2023-04-10T17:21:06.026Z,98924.97
2023-04-10T17:23:33.860Z,98934.84
2023-04-10T17:26:05.652Z,98939.06
2023-04-10T17:28:34.132Z,98939.75
2023-04-10T17:31:01.962Z,98935.34
2023-04-10T17:33:29.924Z,98936.84
2023-04-10T17:35:57.888Z,98932.38
2023-04-10T17:38:25.778Z,98936.50
2023-04-10T17:40:53.682Z,98929.59
2023-04-10T17:43:22.176Z,98914.09
2023-04-10T17:45:50.451Z,98928.19
2023-04-10T17:48:18.591Z,98928.84
2023-04-10T17:50:46.581Z,98930.66
2023-04-10T17:53:14.405Z,98931.25
2023-04-10T17:55:42.304Z,98924.34
2023-04-10T17:58:10.169Z,98924.69
2023-04-10T18:00:40.787Z,98926.09
2023-04-10T18:03:09.453Z,98935.56
2023-04-10T18:05:39.682Z,98937.94
2023-04-10T18:08:08.661Z,98928.75
2023-04-10T18:10:36.554Z,98923.59
2023-04-10T18:13:04.733Z,98932.22
2023-04-10T18:15:32.601Z,98924.16
2023-04-10T18:18:01.466Z,98919.81
2023-04-10T18:20:29.335Z,98913.50
2023-04-10T18:22:57.218Z,98911.41
2023-04-10T18:25:25.296Z,98920.19
2023-04-10T18:28:13.156Z,98917.63
2023-04-10T18:30:41.364Z,98919.47
2023-04-10T18:33:11.349Z,98910.53
2023-04-10T18:35:39.811Z,98912.34
2023-04-10T18:38:07.703Z,98910.06
2023-04-10T18:40:36.863Z,98910.72
2023-04-10T18:43:05.179Z,98911.88
2023-04-10T18:45:34.425Z,98912.06
2023-04-10T18:48:02.894Z,98911.25
2023-04-10T18:50:34.066Z,98911.78
2023-04-10T18:53:01.960Z,98915.69
2023-04-10T18:55:30.012Z,98909.09
2023-04-10T18:57:58.339Z,98904.88
2023-04-10T19:00:26.227Z,98905.53
2023-04-10T19:02:55.119Z,98918.63
2023-04-10T19:05:23.190Z,98915.66
2023-04-10T19:08:03.030Z,98924.84
2023-04-10T19:10:32.492Z,98915.25
2023-04-10T19:13:00.451Z,98913.38
2023-04-10T19:15:28.363Z,98919.38
2023-04-10T19:17:56.456Z,98908.31
2023-04-10T19:20:50.006Z,98915.06
2023-04-10T19:23:13.035Z,98911.59
2023-04-10T19:25:41.466Z,98911.25
2023-04-10T19:28:09.375Z,98911.94
2023-04-10T19:30:37.241Z,98911.28
2023-04-10T19:33:05.286Z,98898.59
2023-04-10T19:35:33.330Z,98905.41
2023-04-10T19:38:01.526Z,98908.94
2023-04-10T19:40:30.538Z,98894.22
2023-04-10T19:43:00.410Z,98894.25
2023-04-10T19:45:29.401Z,98901.03
2023-04-10T19:47:57.682Z,98893.13
2023-04-10T19:50:28.377Z,98904.94
2023-04-10T19:52:56.466Z,98897.53
2023-04-10T19:55:24.411Z,98895.25
2023-04-10T19:57:52.288Z,98896.72
2023-04-10T20:00:20.498Z,98894.31
2023-04-10T20:02:48.523Z,98891.06
2023-04-10T20:05:16.737Z,98887.34
2023-04-10T20:07:44.716Z,98880.59
2023-04-10T20:10:12.649Z,98867.53
2023-04-10T20:12:40.659Z,98876.22
2023-04-10T20:15:09.318Z,98870.63
2023-04-10T20:17:38.646Z,98864.78
2023-04-10T20:20:07.166Z,98868.50
2023-04-10T20:22:35.004Z,98862.03
2023-04-10T20:25:03.084Z,98863.44
2023-04-10T20:27:30.956Z,98854.13
2023-04-10T20:29:58.805Z,98853.91
2023-04-10T20:32:26.976Z,98851.53
2023-04-10T20:34:54.840Z,98844.63
2023-04-10T20:37:22.855Z,98846.41
2023-04-10T20:39:50.800Z,98845.13
2023-04-10T20:42:19.706Z,98850.44
2023-04-10T20:44:47.637Z,98846.72
2023-04-10T20:47:15.943Z,98837.03
2023-04-10T20:49:43.985Z,98833.88
2023-04-10T20:52:11.979Z,98828.53
2023-04-10T20:54:39.861Z,98824.03
2023-04-10T20:57:07.835Z,98825.16
2023-04-10T20:59:36.664Z,98821.94
2023-04-10T21:02:04.764Z,98805.97
2023-04-10T21:04:32.974Z,98819.03
2023-04-10T21:07:00.978Z,98816.63
2023-04-10T21:09:28.810Z,98824.50
2023-04-10T21:11:57.697Z,98826.41
2023-04-10T21:14:25.879Z,98832.75
2023-04-10T21:16:53.848Z,98828.34
2023-04-10T21:19:21.751Z,98823.50
2023-04-10T21:21:49.887Z,98831.31
2023-04-10T21:24:17.792Z,98822.91
2023-04-10T21:26:45.753Z,98822.75
2023-04-10T21:29:13.662Z,98822.91
2023-04-10T21:31:41.562Z,98817.28
2023-04-10T21:34:09.397Z,98819.06
2023-04-10T21:36:38.654Z,98821.00
2023-04-10T21:39:09.529Z,98825.50
2023-04-10T21:41:38.291Z,98831.63
2023-04-10T21:44:06.711Z,98824.72
2023-04-10T21:46:34.635Z,98817.59
2023-04-10T21:49:03.098Z,98813.91
2023-04-10T21:51:31.209Z,98813.59
2023-04-10T21:53:59.112Z,98808.56
2023-04-10T21:56:26.962Z,98814.72
2023-04-10T21:58:55.222Z,98806.97
2023-04-10T22:01:23.454Z,98808.91
2023-04-10T22:03:51.397Z,98801.50
2023-04-10T22:06:19.368Z,98798.59
2023-04-10T22:08:47.290Z,98794.56
2023-04-10T22:11:15.674Z,98800.53
2023-04-10T22:13:43.532Z,98796.31
2023-04-10T22:16:11.553Z,98796.66
2023-04-10T22:18:39.469Z,98776.00
2023-04-10T22:21:07.540Z,98779.25
2023-04-10T22:23:35.443Z,98769.25
2023-04-10T22:26:03.502Z,98758.13
2023-04-10T22:28:31.375Z,98767.13
2023-04-10T22:30:59.310Z,98756.03
2023-04-10T22:33:27.228Z,98756.03
2023-04-10T22:35:55.223Z,98759.25
2023-04-10T22:38:23.118Z,98772.63
2023-04-10T22:40:53.972Z,98757.66
2023-04-10T22:43:21.964Z,98775.19
2023-04-10T22:45:49.831Z,98771.03
2023-04-10T22:48:17.714Z,98767.13
2023-04-10T22:50:45.712Z,98777.97
2023-04-10T22:53:13.803Z,98775.53
2023-04-10T22:55:41.900Z,98773.28
2023-04-10T22:58:10.402Z,98769.06
2023-04-10T23:00:38.306Z,98760.72
2023-04-10T23:03:06.293Z,98752.50
2023-04-10T23:05:34.213Z,98746.69
2023-04-10T23:08:02.162Z,98743.78
2023-04-10T23:10:30.069Z,98740.72
2023-04-10T23:12:57.946Z,98737.84
2023-04-10T23:15:25.811Z,98733.81
2023-04-10T23:17:53.681Z,98737.19
2023-04-10T23:20:21.955Z,98733.16
2023-04-10T23:22:49.784Z,98722.88
2023-04-10T23:25:17.669Z,98733.66
2023-04-10T23:27:45.591Z,98728.81
2023-04-10T23:30:13.509Z,98720.13
2023-04-10T23:32:41.534Z,98713.19
2023-04-10T23:35:09.593Z,98709.78
2023-04-10T23:37:37.541Z,98711.09
2023-04-10T23:40:05.876Z,98704.81
2023-04-10T23:42:33.767Z,98705.25
2023-04-10T23:45:01.630Z,98703.16
2023-04-10T23:47:29.507Z,98696.88
2023-04-10T23:49:57.463Z,98689.81
2023-04-10T23:52:25.417Z,98683.00
2023-04-10T23:54:55.906Z,98688.47
2023-04-10T23:57:23.905Z,98685.94
2023-04-10T23:59:52.307Z,98683.16
